sensor_id;sensor_type;location;lat;lon;timestamp;pressure;altitude;pressure_sealevel;temperature;humidity
22333;BME280;11334;36.986;-121.936;2023-01-28T00:01:24;101481.13;;;16.48;46.89
22333;BME280;11334;36.986;-121.936;2023-01-28T00:03:50;101480.16;;;16.49;47.49
22333;BME280;11334;36.986;-121.936;2023-01-28T00:06:17;101472.94;;;16.49;48.49
22333;BME280;11334;36.986;-121.936;2023-01-28T00:08:44;101467.22;;;16.52;48.74
22333;BME280;11334;36.986;-121.936;2023-01-28T00:11:11;101475.75;;;16.56;49.00
22333;BME280;11334;36.986;-121.936;2023-01-28T00:13:38;101475.56;;;16.57;49.79
22333;BME280;11334;36.986;-121.936;2023-01-28T00:16:06;101470.88;;;16.59;50.70
22333;BME280;11334;36.986;-121.936;2023-01-28T00:18:33;101452.66;;;16.55;50.75
22333;BME280;11334;36.986;-121.936;2023-01-28T00:21:05;101454.00;;;16.59;49.34
22333;BME280;11334;36.986;-121.936;2023-01-28T00:23:35;101446.72;;;16.67;47.64
22333;BME280;11334;36.986;-121.936;2023-01-28T00:26:04;101437.88;;;16.67;47.53
22333;BME280;11334;36.986;-121.936;2023-01-28T00:28:30;101434.84;;;16.70;48.39
22333;BME280;11334;36.986;-121.936;2023-01-28T00:30:57;101440.03;;;16.71;48.66
22333;BME280;11334;36.986;-121.936;2023-01-28T00:33:23;101443.97;;;16.75;49.93
22333;BME280;11334;36.986;-121.936;2023-01-28T00:35:59;101444.19;;;16.74;51.41
22333;BME280;11334;36.986;-121.936;2023-01-28T00:38:27;101434.13;;;16.76;53.03
22333;BME280;11334;36.986;-121.936;2023-01-28T00:40:54;101440.69;;;16.73;53.88
22333;BME280;11334;36.986;-121.936;2023-01-28T00:43:20;101433.84;;;16.71;54.40
22333;BME280;11334;36.986;-121.936;2023-01-28T00:45:47;101441.00;;;16.70;55.36
22333;BME280;11334;36.986;-121.936;2023-01-28T00:48:13;101432.53;;;16.67;56.50
22333;BME280;11334;36.986;-121.936;2023-01-28T00:50:39;101435.34;;;16.65;58.11
22333;BME280;11334;36.986;-121.936;2023-01-28T00:53:06;101428.88;;;16.60;59.20
22333;BME280;11334;36.986;-121.936;2023-01-28T00:55:32;101438.94;;;16.58;60.01
22333;BME280;11334;36.986;-121.936;2023-01-28T00:57:58;101426.28;;;16.52;62.07
22333;BME280;11334;36.986;-121.936;2023-01-28T01:00:24;101423.13;;;16.48;62.86
22333;BME280;11334;36.986;-121.936;2023-01-28T01:02:52;101407.31;;;16.39;64.26
22333;BME280;11334;36.986;-121.936;2023-01-28T01:05:18;101414.00;;;16.35;64.76
22333;BME280;11334;36.986;-121.936;2023-01-28T01:07:44;101397.41;;;16.17;66.13
22333;BME280;11334;36.986;-121.936;2023-01-28T01:10:17;101423.63;;;16.22;66.91
22333;BME280;11334;36.986;-121.936;2023-01-28T01:12:45;101416.50;;;16.14;67.25
22333;BME280;11334;36.986;-121.936;2023-01-28T01:15:12;101416.31;;;16.08;67.69
22333;BME280;11334;36.986;-121.936;2023-01-28T01:17:44;101405.50;;;16.02;68.11
22333;BME280;11334;36.986;-121.936;2023-01-28T01:20:16;101399.34;;;15.93;68.38
22333;BME280;11334;36.986;-121.936;2023-01-28T01:22:43;101393.94;;;15.79;68.81
22333;BME280;11334;36.986;-121.936;2023-01-28T01:25:12;101397.59;;;15.78;68.52
22333;BME280;11334;36.986;-121.936;2023-01-28T01:27:39;101398.00;;;15.67;69.08
22333;BME280;11334;36.986;-121.936;2023-01-28T01:30:06;101384.78;;;15.66;69.37
22333;BME280;11334;36.986;-121.936;2023-01-28T01:32:33;101391.00;;;15.58;69.88
22333;BME280;11334;36.986;-121.936;2023-01-28T01:35:01;101388.19;;;15.52;69.91
22333;BME280;11334;36.986;-121.936;2023-01-28T01:37:28;101385.53;;;15.44;70.54
22333;BME280;11334;36.986;-121.936;2023-01-28T01:39:54;101393.56;;;15.36;70.82
22333;BME280;11334;36.986;-121.936;2023-01-28T01:42:24;101384.41;;;15.31;71.12
22333;BME280;11334;36.986;-121.936;2023-01-28T01:45:00;101386.28;;;15.22;71.53
22333;BME280;11334;36.986;-121.936;2023-01-28T01:47:43;101388.31;;;15.13;72.03
22333;BME280;11334;36.986;-121.936;2023-01-28T01:50:24;101381.13;;;15.05;72.43
22333;BME280;11334;36.986;-121.936;2023-01-28T01:52:56;101384.44;;;14.99;72.92
22333;BME280;11334;36.986;-121.936;2023-01-28T01:55:28;101377.28;;;14.92;73.03
22333;BME280;11334;36.986;-121.936;2023-01-28T01:57:57;101387.00;;;14.85;73.26
22333;BME280;11334;36.986;-121.936;2023-01-28T02:00:27;101375.31;;;14.78;73.70
22333;BME280;11334;36.986;-121.936;2023-01-28T02:02:53;101375.00;;;14.73;73.99
22333;BME280;11334;36.986;-121.936;2023-01-28T02:05:21;101377.13;;;14.70;74.24
22333;BME280;11334;36.986;-121.936;2023-01-28T02:07:51;101380.97;;;14.67;74.23
22333;BME280;11334;36.986;-121.936;2023-01-28T02:10:38;101376.13;;;14.55;74.01
22333;BME280;11334;36.986;-121.936;2023-01-28T02:13:05;101375.31;;;14.47;73.65
22333;BME280;11334;36.986;-121.936;2023-01-28T02:15:31;101373.81;;;14.44;73.73
22333;BME280;11334;36.986;-121.936;2023-01-28T02:17:57;101379.47;;;14.33;73.03
22333;BME280;11334;36.986;-121.936;2023-01-28T02:26:24;101380.09;;;14.04;70.03
22333;BME280;11334;36.986;-121.936;2023-01-28T02:29:13;101363.22;;;13.95;69.63
22333;BME280;11334;36.986;-121.936;2023-01-28T02:32:20;101355.53;;;13.85;69.70
22333;BME280;11334;36.986;-121.936;2023-01-28T02:35:38;101355.34;;;13.78;69.60
22333;BME280;11334;36.986;-121.936;2023-01-28T02:37:52;101351.31;;;13.66;69.40
22333;BME280;11334;36.986;-121.936;2023-01-28T02:40:23;101351.47;;;13.57;68.94
22333;BME280;11334;36.986;-121.936;2023-01-28T02:42:55;101358.25;;;13.52;68.98
22333;BME280;11334;36.986;-121.936;2023-01-28T02:47:50;101347.84;;;13.33;68.05
22333;BME280;11334;36.986;-121.936;2023-01-28T02:50:23;101356.63;;;13.26;66.97
22333;BME280;11334;36.986;-121.936;2023-01-28T02:53:08;101343.78;;;13.21;67.31
22333;BME280;11334;36.986;-121.936;2023-01-28T02:59:41;101351.34;;;13.00;66.78
22333;BME280;11334;36.986;-121.936;2023-01-28T03:04:58;101342.28;;;12.86;67.51
22333;BME280;11334;36.986;-121.936;2023-01-28T03:07:28;101336.25;;;12.84;66.42
22333;BME280;11334;36.986;-121.936;2023-01-28T03:09:55;101334.06;;;12.79;67.02
22333;BME280;11334;36.986;-121.936;2023-01-28T03:12:26;101344.75;;;12.70;67.60
22333;BME280;11334;36.986;-121.936;2023-01-28T03:15:27;101338.88;;;12.59;67.00
22333;BME280;11334;36.986;-121.936;2023-01-28T03:18:35;101333.06;;;12.55;66.53
22333;BME280;11334;36.986;-121.936;2023-01-28T03:21:28;101324.72;;;12.50;66.25
22333;BME280;11334;36.986;-121.936;2023-01-28T03:24:31;101328.78;;;12.45;67.17
22333;BME280;11334;36.986;-121.936;2023-01-28T03:27:27;101321.22;;;12.32;66.78
22333;BME280;11334;36.986;-121.936;2023-01-28T03:30:28;101317.53;;;12.26;68.01
22333;BME280;11334;36.986;-121.936;2023-01-28T03:33:16;101320.09;;;12.18;67.34
22333;BME280;11334;36.986;-121.936;2023-01-28T03:36:02;101324.81;;;12.24;67.41
22333;BME280;11334;36.986;-121.936;2023-01-28T03:38:47;101329.91;;;12.17;67.43
22333;BME280;11334;36.986;-121.936;2023-01-28T03:41:20;101342.66;;;12.14;67.40
22333;BME280;11334;36.986;-121.936;2023-01-28T03:43:48;101348.88;;;12.05;67.03
22333;BME280;11334;36.986;-121.936;2023-01-28T03:46:15;101344.69;;;12.02;67.00
22333;BME280;11334;36.986;-121.936;2023-01-28T03:48:43;101340.22;;;12.03;67.82
22333;BME280;11334;36.986;-121.936;2023-01-28T03:51:09;101345.69;;;12.01;67.18
22333;BME280;11334;36.986;-121.936;2023-01-28T03:53:37;101323.69;;;11.92;67.09
22333;BME280;11334;36.986;-121.936;2023-01-28T03:56:04;101344.00;;;11.83;68.20
22333;BME280;11334;36.986;-121.936;2023-01-28T03:58:30;101330.81;;;11.74;67.88
22333;BME280;11334;36.986;-121.936;2023-01-28T04:01:18;101346.56;;;11.75;68.52
22333;BME280;11334;36.986;-121.936;2023-01-28T04:03:44;101341.25;;;11.75;68.18
22333;BME280;11334;36.986;-121.936;2023-01-28T04:06:11;101347.00;;;11.71;68.45
22333;BME280;11334;36.986;-121.936;2023-01-28T04:08:37;101344.13;;;11.65;68.25
22333;BME280;11334;36.986;-121.936;2023-01-28T04:11:03;101360.50;;;11.60;68.57
22333;BME280;11334;36.986;-121.936;2023-01-28T04:13:44;101337.56;;;11.42;68.86
22333;BME280;11334;36.986;-121.936;2023-01-28T04:16:12;101363.19;;;11.51;69.38
22333;BME280;11334;36.986;-121.936;2023-01-28T04:18:38;101363.34;;;11.49;68.80
22333;BME280;11334;36.986;-121.936;2023-01-28T04:21:05;101358.19;;;11.48;69.99
22333;BME280;11334;36.986;-121.936;2023-01-28T04:23:31;101357.78;;;11.43;69.85
22333;BME280;11334;36.986;-121.936;2023-01-28T04:25:57;101369.81;;;11.37;70.01
22333;BME280;11334;36.986;-121.936;2023-01-28T04:28:24;101352.97;;;11.29;70.63
22333;BME280;11334;36.986;-121.936;2023-01-28T04:30:51;101363.56;;;11.29;70.68
22333;BME280;11334;36.986;-121.936;2023-01-28T04:33:18;101376.75;;;11.12;71.32
22333;BME280;11334;36.986;-121.936;2023-01-28T04:35:44;101357.94;;;11.05;71.12
22333;BME280;11334;36.986;-121.936;2023-01-28T04:38:10;101371.72;;;11.09;71.23
22333;BME280;11334;36.986;-121.936;2023-01-28T04:40:36;101363.66;;;11.01;70.63
22333;BME280;11334;36.986;-121.936;2023-01-28T04:43:03;101363.63;;;11.10;70.53
22333;BME280;11334;36.986;-121.936;2023-01-28T04:45:30;101357.22;;;11.03;70.40
22333;BME280;11334;36.986;-121.936;2023-01-28T04:47:56;101365.78;;;10.98;70.93
22333;BME280;11334;36.986;-121.936;2023-01-28T04:50:22;101367.75;;;10.86;71.84
22333;BME280;11334;36.986;-121.936;2023-01-28T04:52:48;101388.41;;;10.83;72.15
22333;BME280;11334;36.986;-121.936;2023-01-28T04:55:15;101382.13;;;10.84;72.38
22333;BME280;11334;36.986;-121.936;2023-01-28T04:57:41;101370.16;;;10.80;73.28
22333;BME280;11334;36.986;-121.936;2023-01-28T05:00:07;101388.00;;;10.78;73.57
22333;BME280;11334;36.986;-121.936;2023-01-28T05:02:34;101382.41;;;10.72;74.51
22333;BME280;11334;36.986;-121.936;2023-01-28T05:05:00;101370.88;;;10.63;74.32
22333;BME280;11334;36.986;-121.936;2023-01-28T05:07:29;101388.72;;;10.61;74.31
22333;BME280;11334;36.986;-121.936;2023-01-28T05:09:55;101385.38;;;10.59;74.85
22333;BME280;11334;36.986;-121.936;2023-01-28T05:12:22;101383.84;;;10.57;74.74
22333;BME280;11334;36.986;-121.936;2023-01-28T05:14:48;101379.41;;;10.48;74.66
22333;BME280;11334;36.986;-121.936;2023-01-28T05:17:14;101370.19;;;10.42;75.29
22333;BME280;11334;36.986;-121.936;2023-01-28T05:19:40;101379.66;;;10.45;75.37
22333;BME280;11334;36.986;-121.936;2023-01-28T05:22:06;101347.06;;;10.16;75.82
22333;BME280;11334;36.986;-121.936;2023-01-28T05:24:33;101367.81;;;10.40;75.65
22333;BME280;11334;36.986;-121.936;2023-01-28T05:26:59;101362.69;;;10.29;75.86
22333;BME280;11334;36.986;-121.936;2023-01-28T05:29:25;101358.34;;;10.37;76.25
22333;BME280;11334;36.986;-121.936;2023-01-28T05:31:51;101353.47;;;10.33;75.89
22333;BME280;11334;36.986;-121.936;2023-01-28T05:34:17;101350.81;;;10.33;75.70
22333;BME280;11334;36.986;-121.936;2023-01-28T05:36:44;101357.78;;;10.34;75.78
22333;BME280;11334;36.986;-121.936;2023-01-28T05:39:10;101359.19;;;10.19;76.29
22333;BME280;11334;36.986;-121.936;2023-01-28T05:41:36;101359.63;;;10.24;76.41
22333;BME280;11334;36.986;-121.936;2023-01-28T05:44:02;101356.97;;;10.24;76.89
22333;BME280;11334;36.986;-121.936;2023-01-28T05:46:28;101367.13;;;10.19;76.88
22333;BME280;11334;36.986;-121.936;2023-01-28T05:48:55;101361.84;;;10.19;76.57
22333;BME280;11334;36.986;-121.936;2023-01-28T05:51:21;101364.63;;;10.17;76.27
22333;BME280;11334;36.986;-121.936;2023-01-28T05:53:47;101368.25;;;10.16;76.61
22333;BME280;11334;36.986;-121.936;2023-01-28T05:56:13;101368.53;;;10.04;76.92
22333;BME280;11334;36.986;-121.936;2023-01-28T05:58:40;101366.00;;;10.03;77.09
22333;BME280;11334;36.986;-121.936;2023-01-28T06:01:06;101363.66;;;10.09;76.84
22333;BME280;11334;36.986;-121.936;2023-01-28T06:03:32;101360.00;;;10.10;76.23
22333;BME280;11334;36.986;-121.936;2023-01-28T06:05:58;101360.03;;;9.91;77.01
22333;BME280;11334;36.986;-121.936;2023-01-28T06:08:24;101362.50;;;9.93;76.94
22333;BME280;11334;36.986;-121.936;2023-01-28T06:10:51;101351.25;;;9.91;76.75
22333;BME280;11334;36.986;-121.936;2023-01-28T06:13:17;101346.44;;;9.76;76.97
22333;BME280;11334;36.986;-121.936;2023-01-28T06:15:43;101322.06;;;9.63;77.05
22333;BME280;11334;36.986;-121.936;2023-01-28T06:18:09;101344.22;;;9.80;76.65
22333;BME280;11334;36.986;-121.936;2023-01-28T06:20:35;101360.78;;;9.73;77.28
22333;BME280;11334;36.986;-121.936;2023-01-28T06:23:05;101339.88;;;9.61;77.56
22333;BME280;11334;36.986;-121.936;2023-01-28T06:25:31;101349.50;;;9.62;78.01
22333;BME280;11334;36.986;-121.936;2023-01-28T06:27:57;101345.75;;;9.64;77.67
22333;BME280;11334;36.986;-121.936;2023-01-28T06:30:26;101348.22;;;9.66;77.53
22333;BME280;11334;36.986;-121.936;2023-01-28T06:32:55;101349.78;;;9.59;77.99
22333;BME280;11334;36.986;-121.936;2023-01-28T06:35:22;101357.81;;;9.57;78.26
22333;BME280;11334;36.986;-121.936;2023-01-28T06:37:48;101341.91;;;9.48;78.69
22333;BME280;11334;36.986;-121.936;2023-01-28T06:40:14;101353.91;;;9.52;78.68
22333;BME280;11334;36.986;-121.936;2023-01-28T06:42:41;101346.41;;;9.57;78.70
22333;BME280;11334;36.986;-121.936;2023-01-28T06:45:07;101345.72;;;9.55;78.65
22333;BME280;11334;36.986;-121.936;2023-01-28T06:47:33;101329.53;;;9.48;79.02
22333;BME280;11334;36.986;-121.936;2023-01-28T06:50:00;101327.31;;;9.44;79.13
22333;BME280;11334;36.986;-121.936;2023-01-28T06:52:26;101338.16;;;9.50;79.53
22333;BME280;11334;36.986;-121.936;2023-01-28T06:54:52;101319.47;;;9.33;80.53
22333;BME280;11334;36.986;-121.936;2023-01-28T06:57:18;101336.91;;;9.45;80.29
22333;BME280;11334;36.986;-121.936;2023-01-28T06:59:44;101336.50;;;9.49;79.63
22333;BME280;11334;36.986;-121.936;2023-01-28T07:02:11;101324.66;;;9.35;80.21
22333;BME280;11334;36.986;-121.936;2023-01-28T07:04:37;101332.44;;;9.45;80.31
22333;BME280;11334;36.986;-121.936;2023-01-28T07:07:03;101338.28;;;9.40;80.73
22333;BME280;11334;36.986;-121.936;2023-01-28T07:09:29;101333.56;;;9.43;81.12
22333;BME280;11334;36.986;-121.936;2023-01-28T07:11:56;101334.38;;;9.44;80.62
22333;BME280;11334;36.986;-121.936;2023-01-28T07:14:22;101327.72;;;9.40;80.30
22333;BME280;11334;36.986;-121.936;2023-01-28T07:16:48;101322.16;;;9.43;79.99
22333;BME280;11334;36.986;-121.936;2023-01-28T07:19:15;101326.47;;;9.44;80.06
22333;BME280;11334;36.986;-121.936;2023-01-28T07:21:44;101322.28;;;9.41;79.83
22333;BME280;11334;36.986;-121.936;2023-01-28T07:24:10;101292.06;;;9.25;79.54
22333;BME280;11334;36.986;-121.936;2023-01-28T07:26:37;101319.06;;;9.38;79.84
22333;BME280;11334;36.986;-121.936;2023-01-28T07:29:03;101318.38;;;9.36;80.14
22333;BME280;11334;36.986;-121.936;2023-01-28T07:31:29;101316.84;;;9.33;80.69
22333;BME280;11334;36.986;-121.936;2023-01-28T07:33:55;101291.84;;;9.08;81.13
22333;BME280;11334;36.986;-121.936;2023-01-28T07:36:21;101318.34;;;9.26;81.33
22333;BME280;11334;36.986;-121.936;2023-01-28T07:38:48;101312.06;;;9.18;81.45
22333;BME280;11334;36.986;-121.936;2023-01-28T07:41:14;101306.91;;;9.16;81.36
22333;BME280;11334;36.986;-121.936;2023-01-28T07:43:40;101305.13;;;9.17;81.37
22333;BME280;11334;36.986;-121.936;2023-01-28T07:46:06;101299.13;;;9.15;81.60
22333;BME280;11334;36.986;-121.936;2023-01-28T07:48:33;101306.66;;;9.19;80.92
22333;BME280;11334;36.986;-121.936;2023-01-28T07:51:00;101303.31;;;9.17;80.87
22333;BME280;11334;36.986;-121.936;2023-01-28T07:53:26;101294.19;;;9.01;81.16
22333;BME280;11334;36.986;-121.936;2023-01-28T07:55:58;101295.00;;;8.92;82.07
22333;BME280;11334;36.986;-121.936;2023-01-28T07:58:25;101309.53;;;9.07;81.58
22333;BME280;11334;36.986;-121.936;2023-01-28T08:00:56;101308.44;;;9.10;81.39
22333;BME280;11334;36.986;-121.936;2023-01-28T08:03:23;101307.56;;;9.00;82.07
22333;BME280;11334;36.986;-121.936;2023-01-28T08:05:51;101299.88;;;8.97;82.11
22333;BME280;11334;36.986;-121.936;2023-01-28T08:08:18;101296.22;;;8.88;82.75
22333;BME280;11334;36.986;-121.936;2023-01-28T08:10:44;101297.50;;;8.94;82.76
22333;BME280;11334;36.986;-121.936;2023-01-28T08:13:12;101291.25;;;8.95;82.40
22333;BME280;11334;36.986;-121.936;2023-01-28T08:15:39;101296.97;;;9.00;82.09
22333;BME280;11334;36.986;-121.936;2023-01-28T08:18:07;101288.06;;;9.01;81.84
22333;BME280;11334;36.986;-121.936;2023-01-28T08:20:34;101291.69;;;9.00;81.73
22333;BME280;11334;36.986;-121.936;2023-01-28T08:23:15;101297.88;;;8.89;81.99
22333;BME280;11334;36.986;-121.936;2023-01-28T08:25:41;101295.41;;;8.88;82.46
22333;BME280;11334;36.986;-121.936;2023-01-28T08:28:08;101285.50;;;8.81;83.00
22333;BME280;11334;36.986;-121.936;2023-01-28T08:30:36;101275.75;;;8.81;82.46
22333;BME280;11334;36.986;-121.936;2023-01-28T08:33:04;101284.50;;;8.82;82.65
22333;BME280;11334;36.986;-121.936;2023-01-28T08:35:31;101291.88;;;8.78;82.81
22333;BME280;11334;36.986;-121.936;2023-01-28T08:37:59;101284.94;;;8.77;83.17
22333;BME280;11334;36.986;-121.936;2023-01-28T08:40:26;101296.34;;;8.87;83.43
22333;BME280;11334;36.986;-121.936;2023-01-28T08:42:53;101280.09;;;8.91;82.54
22333;BME280;11334;36.986;-121.936;2023-01-28T08:45:21;101289.84;;;8.91;82.22
22333;BME280;11334;36.986;-121.936;2023-01-28T08:47:50;101284.81;;;8.88;82.47
22333;BME280;11334;36.986;-121.936;2023-01-28T08:50:18;101284.25;;;8.84;82.48
22333;BME280;11334;36.986;-121.936;2023-01-28T08:52:45;101288.53;;;8.76;82.76
22333;BME280;11334;36.986;-121.936;2023-01-28T08:55:12;101277.34;;;8.63;84.14
22333;BME280;11334;36.986;-121.936;2023-01-28T08:57:38;101286.38;;;8.61;84.41
22333;BME280;11334;36.986;-121.936;2023-01-28T09:00:06;101287.19;;;8.61;84.54
22333;BME280;11334;36.986;-121.936;2023-01-28T09:02:32;101285.38;;;8.52;84.78
22333;BME280;11334;36.986;-121.936;2023-01-28T09:04:59;101288.19;;;8.60;84.09
22333;BME280;11334;36.986;-121.936;2023-01-28T09:07:25;101291.53;;;8.62;83.83
22333;BME280;11334;36.986;-121.936;2023-01-28T09:09:51;101281.41;;;8.67;83.05
22333;BME280;11334;36.986;-121.936;2023-01-28T09:12:17;101274.00;;;8.61;83.29
22333;BME280;11334;36.986;-121.936;2023-01-28T09:14:44;101286.81;;;8.66;82.90
22333;BME280;11334;36.986;-121.936;2023-01-28T09:17:10;101273.16;;;8.61;83.39
22333;BME280;11334;36.986;-121.936;2023-01-28T09:19:36;101284.16;;;8.66;83.20
22333;BME280;11334;36.986;-121.936;2023-01-28T09:22:04;101271.22;;;8.63;83.09
22333;BME280;11334;36.986;-121.936;2023-01-28T09:24:31;101280.38;;;8.59;83.13
22333;BME280;11334;36.986;-121.936;2023-01-28T09:26:57;101271.19;;;8.53;84.23
22333;BME280;11334;36.986;-121.936;2023-01-28T09:29:23;101272.16;;;8.52;84.24
22333;BME280;11334;36.986;-121.936;2023-01-28T09:31:49;101281.03;;;8.51;83.93
22333;BME280;11334;36.986;-121.936;2023-01-28T09:34:15;101268.28;;;8.56;83.77
22333;BME280;11334;36.986;-121.936;2023-01-28T09:36:42;101266.88;;;8.52;83.27
22333;BME280;11334;36.986;-121.936;2023-01-28T09:39:08;101271.38;;;8.41;84.07
22333;BME280;11334;36.986;-121.936;2023-01-28T09:47:21;101284.38;;;8.53;83.97
22333;BME280;11334;36.986;-121.936;2023-01-28T09:49:50;101283.94;;;8.49;83.60
22333;BME280;11334;36.986;-121.936;2023-01-28T09:52:21;101279.88;;;8.45;83.62
22333;BME280;11334;36.986;-121.936;2023-01-28T09:54:51;101284.13;;;8.36;84.56
22333;BME280;11334;36.986;-121.936;2023-01-28T09:57:36;101289.16;;;8.39;84.71
22333;BME280;11334;36.986;-121.936;2023-01-28T10:00:20;101284.13;;;8.36;84.71
22333;BME280;11334;36.986;-121.936;2023-01-28T10:19:24;101286.44;;;8.30;85.29
22333;BME280;11334;36.986;-121.936;2023-01-28T10:22:01;101280.50;;;8.28;85.46
22333;BME280;11334;36.986;-121.936;2023-01-28T10:24:34;101283.50;;;8.23;85.58
22333;BME280;11334;36.986;-121.936;2023-01-28T10:27:02;101280.72;;;8.25;85.33
22333;BME280;11334;36.986;-121.936;2023-01-28T10:29:31;101280.41;;;8.19;85.45
22333;BME280;11334;36.986;-121.936;2023-01-28T10:32:25;101281.16;;;8.30;85.24
22333;BME280;11334;36.986;-121.936;2023-01-28T10:34:55;101280.22;;;8.31;85.24
22333;BME280;11334;36.986;-121.936;2023-01-28T10:37:21;101283.63;;;8.22;85.65
22333;BME280;11334;36.986;-121.936;2023-01-28T10:39:47;101278.22;;;8.23;85.18
22333;BME280;11334;36.986;-121.936;2023-01-28T10:44:48;101280.22;;;8.31;85.13
22333;BME280;11334;36.986;-121.936;2023-01-28T10:47:40;101270.16;;;8.25;84.98
22333;BME280;11334;36.986;-121.936;2023-01-28T10:50:22;101273.50;;;8.27;85.43
22333;BME280;11334;36.986;-121.936;2023-01-28T10:53:06;101270.69;;;8.19;85.18
22333;BME280;11334;36.986;-121.936;2023-01-28T10:55:51;101264.59;;;8.19;85.71
22333;BME280;11334;36.986;-121.936;2023-01-28T10:58:21;101270.69;;;8.19;85.19
22333;BME280;11334;36.986;-121.936;2023-01-28T11:01:06;101257.13;;;8.23;85.20
22333;BME280;11334;36.986;-121.936;2023-01-28T11:03:33;101250.13;;;8.13;85.36
22333;BME280;11334;36.986;-121.936;2023-01-28T11:06:02;101264.97;;;8.14;85.87
22333;BME280;11334;36.986;-121.936;2023-01-28T11:08:29;101263.31;;;8.02;86.46
22333;BME280;11334;36.986;-121.936;2023-01-28T11:10:56;101242.69;;;8.07;86.28
22333;BME280;11334;36.986;-121.936;2023-01-28T11:13:25;101273.84;;;8.13;85.82
22333;BME280;11334;36.986;-121.936;2023-01-28T11:16:09;101266.41;;;8.18;85.59
22333;BME280;11334;36.986;-121.936;2023-01-28T11:18:50;101261.50;;;8.14;84.74
22333;BME280;11334;36.986;-121.936;2023-01-28T11:21:29;101272.16;;;8.12;85.32
22333;BME280;11334;36.986;-121.936;2023-01-28T11:24:00;101268.69;;;8.12;85.37
22333;BME280;11334;36.986;-121.936;2023-01-28T11:26:31;101273.72;;;8.15;85.54
22333;BME280;11334;36.986;-121.936;2023-01-28T11:28:59;101263.53;;;8.10;85.02
22333;BME280;11334;36.986;-121.936;2023-01-28T11:31:25;101270.50;;;8.11;85.06
22333;BME280;11334;36.986;-121.936;2023-01-28T11:33:54;101271.72;;;8.07;84.79
22333;BME280;11334;36.986;-121.936;2023-01-28T11:36:27;101254.13;;;7.97;85.13
22333;BME280;11334;36.986;-121.936;2023-01-28T11:39:01;101244.03;;;8.02;84.78
22333;BME280;11334;36.986;-121.936;2023-01-28T11:41:36;101253.97;;;8.09;84.79
22333;BME280;11334;36.986;-121.936;2023-01-28T11:52:17;101267.41;;;7.95;84.44
22333;BME280;11334;36.986;-121.936;2023-01-28T11:55:21;101269.88;;;7.87;85.43
22333;BME280;11334;36.986;-121.936;2023-01-28T12:09:23;101262.09;;;7.86;85.21
22333;BME280;11334;36.986;-121.936;2023-01-28T12:12:17;101267.59;;;7.83;85.36
22333;BME280;11334;36.986;-121.936;2023-01-28T12:26:15;101253.72;;;7.50;86.48
22333;BME280;11334;36.986;-121.936;2023-01-28T12:29:34;101281.22;;;7.68;86.76
22333;BME280;11334;36.986;-121.936;2023-01-28T12:34:52;101276.31;;;7.63;85.71
22333;BME280;11334;36.986;-121.936;2023-01-28T12:38:27;101288.91;;;7.60;85.52
22333;BME280;11334;36.986;-121.936;2023-01-28T12:40:51;101270.72;;;7.57;85.94
22333;BME280;11334;36.986;-121.936;2023-01-28T12:46:15;101261.88;;;7.47;85.72
22333;BME280;11334;36.986;-121.936;2023-01-28T12:48:48;101257.69;;;7.45;86.14
22333;BME280;11334;36.986;-121.936;2023-01-28T12:51:24;101271.00;;;7.43;86.27
22333;BME280;11334;36.986;-121.936;2023-01-28T12:57:00;101259.97;;;7.49;86.44
22333;BME280;11334;36.986;-121.936;2023-01-28T12:59:50;101263.44;;;7.50;86.77
22333;BME280;11334;36.986;-121.936;2023-01-28T13:02:26;101263.31;;;7.51;86.73
22333;BME280;11334;36.986;-121.936;2023-01-28T13:05:16;101264.63;;;7.46;86.25
22333;BME280;11334;36.986;-121.936;2023-01-28T13:07:49;101260.09;;;7.48;85.94
22333;BME280;11334;36.986;-121.936;2023-01-28T13:10:41;101262.72;;;7.48;86.13
22333;BME280;11334;36.986;-121.936;2023-01-28T13:15:44;101268.81;;;7.48;86.92
22333;BME280;11334;36.986;-121.936;2023-01-28T13:18:32;101271.47;;;7.48;86.19
22333;BME280;11334;36.986;-121.936;2023-01-28T13:21:00;101271.72;;;7.45;86.58
22333;BME280;11334;36.986;-121.936;2023-01-28T13:26:29;101280.84;;;7.41;85.67
22333;BME280;11334;36.986;-121.936;2023-01-28T13:29:07;101268.75;;;7.28;86.22
22333;BME280;11334;36.986;-121.936;2023-01-28T13:31:39;101273.56;;;7.34;86.31
22333;BME280;11334;36.986;-121.936;2023-01-28T13:34:07;101269.84;;;7.36;86.03
22333;BME280;11334;36.986;-121.936;2023-01-28T13:36:44;101275.78;;;7.38;86.33
22333;BME280;11334;36.986;-121.936;2023-01-28T13:42:07;101278.31;;;7.40;86.58
22333;BME280;11334;36.986;-121.936;2023-01-28T13:44:35;101292.84;;;7.23;86.08
22333;BME280;11334;36.986;-121.936;2023-01-28T13:52:27;101285.53;;;7.27;86.41
22333;BME280;11334;36.986;-121.936;2023-01-28T13:55:01;101288.31;;;7.15;87.03
22333;BME280;11334;36.986;-121.936;2023-01-28T14:03:52;101302.91;;;7.19;86.86
22333;BME280;11334;36.986;-121.936;2023-01-28T14:09:36;101299.59;;;7.17;86.81
22333;BME280;11334;36.986;-121.936;2023-01-28T14:17:54;101297.41;;;7.11;86.77
22333;BME280;11334;36.986;-121.936;2023-01-28T14:20:33;101298.13;;;7.13;86.71
22333;BME280;11334;36.986;-121.936;2023-01-28T14:23:04;101312.38;;;7.10;87.24
22333;BME280;11334;36.986;-121.936;2023-01-28T14:31:37;101323.19;;;7.07;86.86
22333;BME280;11334;36.986;-121.936;2023-01-28T14:36:42;101324.25;;;7.05;87.26
22333;BME280;11334;36.986;-121.936;2023-01-28T14:39:27;101325.09;;;7.05;87.33
22333;BME280;11334;36.986;-121.936;2023-01-28T14:41:55;101296.00;;;6.85;88.08